createdAt,value
2018-04-24T00:02:05.164Z,9.53
2018-04-24T00:04:39.677Z,9.20
2018-04-24T00:07:08.600Z,8.80
2018-04-24T00:09:40.335Z,8.80
2018-04-24T00:12:11.513Z,9.50
2018-04-24T00:14:40.799Z,8.50
2018-04-24T00:17:10.725Z,9.93
2018-04-24T00:19:38.864Z,9.07
2018-04-24T00:22:13.736Z,8.67
2018-04-24T00:24:46.820Z,8.77
2018-04-24T00:27:14.971Z,9.53
2018-04-24T00:29:43.101Z,9.30
2018-04-24T00:32:13.797Z,8.80
2018-04-24T00:34:44.197Z,8.80
2018-04-24T00:37:14.104Z,8.33
2018-04-24T00:39:46.197Z,9.03
2018-04-24T00:42:22.676Z,9.27
2018-04-24T00:44:50.923Z,8.90
2018-04-24T00:47:20.252Z,8.90
2018-04-24T00:49:48.480Z,9.67
2018-04-24T00:52:18.340Z,9.50
2018-04-24T00:54:55.023Z,10.00
2018-04-24T00:57:33.626Z,9.60
2018-04-24T01:00:02.642Z,10.20
2018-04-24T01:02:31.287Z,9.20
2018-04-24T01:05:00.180Z,10.10
2018-04-24T01:07:28.674Z,10.40
2018-04-24T01:09:56.896Z,9.57
2018-04-24T01:12:27.388Z,11.33
2018-04-24T01:14:55.676Z,10.63
2018-04-24T01:17:24.892Z,11.30
2018-04-24T01:19:53.156Z,11.47
2018-04-24T01:22:27.870Z,10.03
2018-04-24T01:24:56.318Z,10.53
2018-04-24T01:27:25.245Z,11.40
2018-04-24T01:29:55.840Z,10.27
2018-04-24T01:32:25.700Z,10.20
2018-04-24T01:34:55.871Z,10.63
2018-04-24T01:37:25.200Z,10.03
2018-04-24T01:40:03.372Z,12.00
2018-04-24T01:42:33.426Z,11.23
2018-04-24T01:45:13.076Z,12.63
2018-04-24T01:47:46.543Z,11.90
2018-04-24T01:50:21.696Z,11.90
2018-04-24T01:52:55.075Z,11.53
2018-04-24T01:55:23.977Z,13.13
2018-04-24T01:57:52.896Z,11.87
2018-04-24T02:00:21.823Z,11.77
2018-04-24T02:02:49.985Z,12.07
2018-04-24T02:05:18.620Z,12.37
2018-04-24T02:07:48.514Z,13.63
2018-04-24T02:10:16.653Z,14.33
2018-04-24T02:12:44.823Z,13.57
2018-04-24T02:15:13.305Z,13.30
2018-04-24T02:17:42.352Z,13.60
2018-04-24T02:20:11.105Z,14.40
2018-04-24T02:22:39.672Z,12.57
2018-04-24T02:25:07.887Z,13.80
2018-04-24T02:27:36.794Z,12.53
2018-04-24T02:30:05.688Z,12.43
2018-04-24T02:32:34.630Z,12.13
2018-04-24T02:35:02.819Z,12.77
2018-04-24T02:37:30.992Z,13.10
2018-04-24T02:40:00.588Z,11.53
2018-04-24T02:42:30.154Z,11.67
2018-04-24T02:44:59.485Z,11.43
2018-04-24T02:47:28.942Z,11.00
2018-04-24T02:49:57.850Z,11.60
2018-04-24T02:52:29.348Z,11.93
2018-04-24T02:54:57.484Z,12.10
2018-04-24T02:57:26.425Z,12.27
2018-04-24T02:59:54.577Z,13.23
2018-04-24T03:02:22.738Z,12.97
2018-04-24T03:04:50.883Z,13.53
2018-04-24T03:07:20.927Z,14.53
2018-04-24T03:09:49.056Z,12.37
2018-04-24T03:12:19.872Z,13.30
2018-04-24T03:14:50.490Z,13.37
2018-04-24T03:17:24.723Z,13.50
2018-04-24T03:19:53.496Z,14.47
2018-04-24T03:22:21.774Z,14.40
2018-04-24T03:24:51.046Z,13.57
2018-04-24T03:27:30.205Z,14.67
2018-04-24T03:30:12.156Z,17.00
2018-04-24T03:32:48.021Z,18.40
2018-04-24T03:35:19.990Z,19.50
2018-04-24T03:37:48.171Z,19.50
2018-04-24T03:40:17.546Z,20.47
2018-04-24T03:42:46.426Z,20.10
2018-04-24T03:45:16.089Z,20.67
2018-04-24T03:47:45.646Z,20.10
2018-04-24T03:50:14.568Z,23.30
2018-04-24T03:52:43.167Z,21.27
2018-04-24T03:55:11.369Z,21.63
2018-04-24T03:57:39.984Z,22.70
2018-04-24T04:00:10.744Z,23.42
2018-04-24T04:02:39.000Z,24.67
2018-04-24T04:05:13.447Z,23.97
2018-04-24T04:07:41.586Z,23.10
2018-04-24T04:10:20.546Z,23.50
2018-04-24T04:12:48.680Z,24.80
2018-04-24T04:15:17.597Z,22.70
2018-04-24T04:18:07.440Z,22.27
2018-04-24T04:20:48.388Z,24.60
2018-04-24T04:23:28.569Z,24.17
2018-04-24T04:26:03.608Z,22.50
2018-04-24T04:28:39.245Z,23.20
2018-04-24T04:31:17.338Z,23.43
2018-04-24T04:33:46.397Z,21.83
2018-04-24T04:36:16.278Z,21.73
2018-04-24T04:38:52.085Z,20.37
2018-04-24T04:41:21.401Z,21.80
2018-04-24T04:43:49.909Z,21.30
2018-04-24T04:46:21.384Z,21.53
2018-04-24T04:48:50.876Z,22.77
2018-04-24T04:51:19.906Z,21.53
2018-04-24T04:53:50.151Z,20.13
2018-04-24T04:56:28.846Z,18.87
2018-04-24T04:58:56.983Z,15.07
2018-04-24T05:01:26.945Z,20.20
2018-04-24T05:04:07.886Z,18.70
2018-04-24T05:06:37.217Z,15.57
2018-04-24T05:09:06.176Z,14.23
2018-04-24T05:11:34.425Z,14.80
2018-04-24T05:14:05.424Z,15.53
2018-04-24T05:16:34.832Z,13.67
2018-04-24T05:19:06.240Z,14.73
2018-04-24T05:21:38.338Z,13.47
2018-04-24T05:24:10.787Z,16.30
2018-04-24T05:26:45.106Z,16.50
2018-04-24T05:29:13.245Z,16.43
2018-04-24T05:31:48.309Z,18.40
2018-04-24T05:34:19.877Z,16.73
2018-04-24T05:36:48.912Z,16.00
2018-04-24T05:39:18.224Z,14.80
2018-04-24T05:41:50.073Z,13.67
2018-04-24T05:44:23.038Z,12.90
2018-04-24T05:46:51.690Z,13.33
2018-04-24T05:49:19.825Z,13.87
2018-04-24T05:51:47.953Z,12.73
2018-04-24T05:54:16.892Z,10.50
2018-04-24T05:56:47.285Z,10.83
2018-04-24T05:59:16.814Z,11.20
2018-04-24T06:01:44.937Z,11.47
2018-04-24T06:04:14.000Z,11.80
2018-04-24T06:06:56.158Z,12.20
2018-04-24T06:09:26.111Z,10.80
2018-04-24T06:11:58.124Z,9.60
2018-04-24T06:14:27.616Z,12.70
2018-04-24T06:16:57.950Z,8.07
2018-04-24T06:19:32.746Z,8.57
2018-04-24T06:22:06.635Z,8.13
2018-04-24T06:24:40.378Z,8.83
2018-04-24T06:27:14.148Z,8.60
2018-04-24T06:29:48.823Z,8.17
2018-04-24T06:32:22.700Z,8.40
2018-04-24T06:34:56.451Z,7.90
2018-04-24T06:37:30.179Z,8.10
2018-04-24T06:40:03.962Z,7.70
2018-04-24T06:42:37.830Z,7.27
2018-04-24T06:45:05.968Z,7.30
2018-04-24T06:47:34.128Z,6.90
2018-04-24T06:50:02.268Z,7.53
2018-04-24T06:52:30.421Z,6.23
2018-04-24T06:54:58.577Z,6.97
2018-04-24T06:57:26.688Z,6.43
2018-04-24T06:59:54.859Z,6.67
2018-04-24T07:02:22.992Z,6.77
2018-04-24T07:04:53.114Z,6.20
2018-04-24T07:07:21.249Z,7.30
2018-04-24T07:09:50.173Z,7.57
2018-04-24T07:12:18.296Z,6.00
2018-04-24T07:14:46.453Z,6.10
2018-04-24T07:17:14.567Z,5.63
2018-04-24T07:19:43.816Z,5.77
2018-04-24T07:22:11.948Z,5.07
2018-04-24T07:24:40.117Z,5.40
2018-04-24T07:27:09.072Z,6.00
2018-04-24T07:29:37.196Z,5.60
2018-04-24T07:32:05.318Z,5.60
2018-04-24T07:34:33.490Z,5.60
2018-04-24T07:37:02.207Z,5.77
2018-04-24T07:39:31.124Z,5.23
2018-04-24T07:41:59.262Z,6.00
2018-04-24T07:44:29.301Z,6.27
2018-04-24T07:46:57.450Z,5.07
2018-04-24T07:49:27.276Z,5.77
2018-04-24T07:51:56.174Z,5.80
2018-04-24T07:54:25.096Z,5.73
2018-04-24T07:56:53.234Z,5.40
2018-04-24T07:59:22.429Z,5.40
2018-04-24T08:01:50.502Z,5.50
2018-04-24T08:04:18.661Z,5.20
2018-04-24T08:06:46.804Z,5.10
2018-04-24T08:09:15.777Z,5.07
2018-04-24T08:11:45.130Z,4.53
2018-04-24T08:14:15.703Z,5.70
2018-04-24T08:16:45.784Z,5.10
2018-04-24T08:19:15.151Z,5.53
2018-04-24T08:21:43.290Z,5.10
2018-04-24T08:24:14.261Z,5.00
2018-04-24T08:26:42.371Z,5.00
2018-04-24T08:29:10.523Z,5.07
2018-04-24T08:31:38.653Z,4.83
2018-04-24T08:34:06.851Z,6.13
2018-04-24T08:36:34.990Z,5.53
2018-04-24T08:39:04.408Z,5.30
2018-04-24T08:41:32.535Z,5.03
2018-04-24T08:44:00.690Z,5.00
2018-04-24T08:46:28.827Z,5.50
2018-04-24T08:48:57.810Z,5.40
2018-04-24T08:51:27.124Z,5.37
2018-04-24T08:53:55.274Z,5.70
2018-04-24T08:56:24.196Z,5.43
2018-04-24T08:58:54.537Z,5.13
2018-04-24T09:01:22.561Z,5.83
2018-04-24T09:03:51.472Z,5.90
2018-04-24T09:06:19.605Z,5.83
2018-04-24T09:08:47.756Z,6.67
2018-04-24T09:11:18.636Z,5.70
2018-04-24T09:13:47.179Z,5.57
2018-04-24T09:16:15.301Z,5.63
2018-04-24T09:18:43.462Z,5.80
2018-04-24T09:21:15.336Z,4.90
2018-04-24T09:23:44.728Z,5.03
2018-04-24T09:26:13.623Z,5.70
2018-04-24T09:28:43.857Z,5.10
2018-04-24T09:31:12.002Z,5.67
2018-04-24T09:36:41.295Z,5.70
2018-04-24T09:39:09.427Z,5.90
2018-04-24T09:41:38.316Z,5.90
2018-04-24T09:44:08.345Z,5.70
2018-04-24T09:46:36.467Z,5.50
2018-04-24T09:49:04.607Z,5.80
2018-04-24T09:51:33.175Z,5.60
2018-04-24T09:54:01.306Z,6.03
2018-04-24T09:56:29.463Z,6.63
2018-04-24T09:58:59.347Z,6.70
2018-04-24T10:01:27.469Z,6.70
2018-04-24T10:03:57.113Z,7.60
2018-04-24T10:06:26.004Z,6.87
2018-04-24T10:08:55.003Z,7.90
2018-04-24T10:11:23.123Z,7.33
2018-04-24T10:13:51.256Z,6.40
2018-04-24T10:16:19.380Z,6.80
2018-04-24T10:18:47.583Z,7.33
2018-04-24T10:21:15.668Z,6.83
2018-04-24T10:23:43.831Z,6.90
2018-04-24T10:26:12.719Z,6.30
2018-04-24T10:28:43.453Z,6.93
2018-04-24T10:31:13.146Z,7.03
2018-04-24T10:33:41.307Z,8.17
2018-04-24T10:36:09.439Z,8.00
2018-04-24T10:38:37.591Z,6.93
2018-04-24T10:41:06.474Z,7.50
2018-04-24T10:43:35.365Z,6.63
2018-04-24T10:46:04.419Z,6.50
2018-04-24T10:48:33.442Z,6.63
2018-04-24T10:51:01.588Z,7.03
2018-04-24T10:53:29.695Z,6.37
2018-04-24T10:56:00.363Z,7.60
2018-04-24T10:58:28.505Z,7.60
2018-04-24T11:00:57.412Z,7.67
2018-04-24T11:03:27.261Z,6.70
2018-04-24T11:05:55.404Z,6.30
2018-04-24T11:08:23.525Z,7.90
2018-04-24T11:10:51.655Z,7.40
2018-04-24T11:13:19.775Z,7.00
2018-04-24T11:15:47.990Z,6.93
2018-04-24T11:18:18.938Z,7.30
2018-04-24T11:20:50.295Z,6.60
2018-04-24T11:23:18.415Z,6.30
2018-04-24T11:25:46.560Z,7.20
2018-04-24T11:28:14.673Z,7.43
2018-04-24T11:30:42.815Z,6.53
2018-04-24T11:33:17.515Z,6.53
2018-04-24T11:35:45.654Z,7.00
2018-04-24T11:38:13.777Z,6.60
2018-04-24T11:40:41.924Z,6.73
2018-04-24T11:43:10.042Z,7.20
2018-04-24T11:45:38.189Z,6.83
2018-04-24T11:48:06.748Z,6.40
2018-04-24T11:50:35.650Z,6.63
2018-04-24T11:53:03.763Z,6.70
2018-04-24T11:55:33.783Z,7.30
2018-04-24T11:58:02.002Z,6.70
2018-04-24T12:00:30.178Z,8.17
2018-04-24T12:02:59.066Z,7.10
2018-04-24T12:05:27.973Z,7.83
2018-04-24T12:07:56.090Z,7.33
2018-04-24T12:10:24.231Z,7.83
2018-04-24T12:12:52.346Z,7.33
2018-04-24T12:15:20.483Z,7.47
2018-04-24T12:17:49.880Z,7.77
2018-04-24T12:20:18.024Z,6.77
2018-04-24T12:22:46.913Z,6.97
2018-04-24T12:25:15.827Z,7.40
2018-04-24T12:27:43.935Z,7.30
2018-04-24T12:30:12.079Z,6.87
2018-04-24T12:32:40.199Z,7.90
2018-04-24T12:35:08.351Z,8.33
2018-04-24T12:37:36.576Z,9.90
2018-04-24T12:40:05.982Z,8.20
2018-04-24T12:42:34.868Z,8.07
2018-04-24T12:45:04.716Z,8.47
2018-04-24T12:47:32.836Z,8.07
2018-04-24T12:50:00.983Z,8.50
2018-04-24T12:52:31.835Z,8.70
2018-04-24T12:54:59.985Z,8.20
2018-04-24T12:57:28.109Z,17.13
2018-04-24T12:59:57.023Z,17.77
2018-04-24T13:02:25.151Z,13.27
2018-04-24T13:04:53.303Z,9.57
2018-04-24T13:07:21.421Z,9.80
2018-04-24T13:09:50.398Z,9.13
2018-04-24T13:12:18.463Z,12.93
2018-04-24T13:14:46.632Z,158.60
2018-04-24T13:17:14.762Z,49.87
2018-04-24T13:19:42.910Z,13.57
2018-04-24T13:22:11.803Z,10.80
2018-04-24T13:24:40.727Z,10.70
2018-04-24T13:27:08.858Z,14.50
2018-04-24T13:29:37.763Z,11.93
2018-04-24T13:32:06.263Z,10.40
2018-04-24T13:34:34.408Z,10.40
2018-04-24T13:37:02.529Z,10.73
2018-04-24T13:39:32.523Z,10.47
2018-04-24T13:42:00.648Z,10.97
2018-04-24T13:44:28.786Z,11.07
2018-04-24T13:47:01.353Z,11.30
2018-04-24T13:49:29.465Z,11.50
2018-04-24T13:51:59.436Z,11.10
2018-04-24T13:54:27.561Z,11.87
2018-04-24T13:56:55.723Z,11.60
2018-04-24T13:59:24.781Z,11.93
2018-04-24T14:01:52.958Z,11.13
2018-04-24T14:04:21.078Z,11.40
2018-04-24T14:06:49.990Z,12.20
2018-04-24T14:09:18.884Z,11.97
2018-04-24T14:11:47.795Z,11.93
2018-04-24T14:14:15.919Z,12.10
2018-04-24T14:16:44.088Z,12.23
2018-04-24T14:19:13.749Z,11.83
2018-04-24T14:21:42.712Z,11.70
2018-04-24T14:24:10.796Z,12.07
2018-04-24T14:26:40.370Z,12.00
2018-04-24T14:29:08.490Z,11.07
2018-04-24T14:31:38.582Z,11.43
2018-04-24T14:34:06.707Z,11.50
2018-04-24T14:36:37.336Z,11.40
2018-04-24T14:39:06.211Z,11.37
2018-04-24T14:41:35.117Z,11.77
2018-04-24T14:44:04.899Z,11.40
2018-04-24T14:46:33.806Z,12.93
2018-04-24T14:49:01.926Z,11.73
2018-04-24T14:51:31.705Z,12.47
2018-04-24T14:54:00.166Z,12.70
2018-04-24T14:56:29.077Z,12.20
2018-04-24T14:58:57.249Z,12.60
2018-04-24T15:01:25.416Z,12.57
2018-04-24T15:03:53.539Z,13.33
2018-04-24T15:06:21.704Z,13.83
2018-04-24T15:08:49.829Z,13.10
2018-04-24T15:11:17.975Z,14.03
2018-04-24T15:13:46.163Z,14.20
2018-04-24T15:16:15.072Z,14.30
2018-04-24T15:18:43.222Z,15.13
2018-04-24T15:21:11.369Z,16.13
2018-04-24T15:23:39.502Z,17.00
2018-04-24T15:26:14.875Z,15.57
2018-04-24T15:28:45.971Z,16.50
2018-04-24T15:31:14.652Z,17.30
2018-04-24T15:33:42.775Z,17.13
2018-04-24T15:36:10.916Z,16.20
2018-04-24T15:38:39.805Z,16.30
2018-04-24T15:41:08.725Z,18.53
2018-04-24T15:43:36.851Z,17.00
2018-04-24T15:46:05.009Z,18.10
2018-04-24T15:48:33.128Z,16.20
2018-04-24T15:51:02.359Z,17.80
2018-04-24T15:53:30.473Z,18.10
2018-04-24T15:55:58.627Z,16.93
2018-04-24T15:58:27.248Z,17.50
2018-04-24T16:00:56.165Z,17.40
2018-04-24T16:03:24.283Z,17.40
2018-04-24T16:05:52.438Z,17.70
2018-04-24T16:08:21.777Z,17.33
2018-04-24T16:10:49.931Z,18.33
2018-04-24T16:13:18.818Z,18.63
2018-04-24T16:15:46.964Z,17.83
2018-04-24T16:18:15.091Z,18.07
2018-04-24T16:20:43.265Z,17.47
2018-04-24T16:23:12.261Z,17.93
2018-04-24T16:25:41.117Z,16.67
2018-04-24T16:28:09.239Z,18.03
2018-04-24T16:30:38.150Z,19.13
2018-04-24T16:33:06.275Z,18.97
2018-04-24T16:35:36.011Z,19.27
2018-04-24T16:38:04.892Z,19.50
2018-04-24T16:40:35.196Z,20.30
2018-04-24T16:43:04.475Z,19.70
2018-04-24T16:45:32.726Z,19.90
2018-04-24T16:48:00.880Z,20.40
2018-04-24T16:50:29.779Z,19.60
2018-04-24T16:53:01.634Z,20.00
2018-04-24T16:55:29.792Z,21.47
2018-04-24T16:57:58.379Z,21.00
2018-04-24T17:00:26.953Z,21.83
2018-04-24T17:02:55.037Z,21.27
2018-04-24T17:05:23.943Z,21.53
2018-04-24T17:07:52.755Z,20.73
2018-04-24T17:10:20.879Z,22.43
2018-04-24T17:12:49.028Z,20.40
2018-04-24T17:15:17.147Z,21.43
2018-04-24T17:17:46.060Z,21.37
2018-04-24T17:20:14.768Z,21.30
2018-04-24T17:22:43.412Z,22.27
2018-04-24T17:25:11.562Z,21.10
2018-04-24T17:27:39.721Z,22.17
2018-04-24T17:30:08.723Z,21.53
2018-04-24T17:32:40.239Z,22.53
2018-04-24T17:35:10.741Z,22.17
2018-04-24T17:37:39.320Z,22.97
2018-04-24T17:40:07.441Z,23.57
2018-04-24T17:42:35.599Z,22.47
2018-04-24T17:45:06.402Z,22.07
2018-04-24T17:47:35.758Z,22.30
2018-04-24T17:50:03.997Z,21.50
2018-04-24T17:52:32.060Z,21.40
2018-04-24T17:55:00.942Z,22.30
2018-04-24T17:57:29.096Z,20.30
2018-04-24T17:59:57.215Z,19.27
2018-04-24T18:02:25.358Z,19.60
2018-04-24T18:04:53.959Z,20.40
2018-04-24T18:07:22.863Z,20.43
2018-04-24T18:09:51.755Z,21.10
2018-04-24T18:12:20.659Z,20.87
2018-04-24T18:14:48.778Z,20.63
2018-04-24T18:17:16.916Z,21.63
2018-04-24T18:19:45.034Z,21.20
2018-04-24T18:22:13.883Z,21.03
2018-04-24T18:24:42.001Z,20.83
2018-04-24T18:27:10.149Z,20.63
2018-04-24T18:29:38.272Z,20.20
2018-04-24T18:32:07.187Z,20.40
2018-04-24T18:34:36.208Z,20.20
2018-04-24T18:37:05.820Z,18.60
2018-04-24T18:39:33.934Z,19.20
2018-04-24T18:42:03.060Z,21.40
2018-04-24T18:44:31.204Z,22.60
2018-04-24T18:46:59.347Z,20.50
2018-04-24T18:49:27.475Z,19.67
2018-04-24T18:51:55.625Z,20.43
2018-04-24T18:54:23.828Z,21.83
2018-04-24T18:56:51.911Z,20.57
2018-04-24T18:59:20.049Z,20.60
2018-04-24T19:01:49.687Z,22.40
2018-04-24T19:04:17.810Z,21.43
2018-04-24T19:06:46.328Z,22.30
2018-04-24T19:09:15.217Z,21.87
2018-04-24T19:11:44.143Z,23.20
2018-04-24T19:14:19.652Z,21.50
2018-04-24T19:16:48.556Z,22.50
2018-04-24T19:19:22.323Z,22.07
2018-04-24T19:21:50.736Z,22.50
2018-04-24T19:24:25.623Z,20.13
2018-04-24T19:26:55.030Z,21.07
2018-04-24T19:29:23.159Z,20.63
2018-04-24T19:31:57.583Z,21.43
2018-04-24T19:34:25.767Z,21.30
2018-04-24T19:36:53.994Z,21.57
2018-04-24T19:39:28.200Z,20.57
2018-04-24T19:41:57.370Z,21.20
2018-04-24T19:44:27.017Z,19.60
2018-04-24T19:46:55.166Z,19.50
2018-04-24T19:49:29.121Z,21.00
2018-04-24T19:51:58.020Z,20.57
2018-04-24T19:54:26.975Z,20.63
2018-04-24T19:56:58.602Z,21.40
2018-04-24T19:59:27.928Z,21.70
2018-04-24T20:01:56.075Z,21.53
2018-04-24T20:04:24.267Z,21.07
2018-04-24T20:06:53.151Z,21.37
2018-04-24T20:09:21.300Z,23.20
2018-04-24T20:11:49.447Z,20.67
2018-04-24T20:14:18.344Z,20.77
2018-04-24T20:16:46.503Z,20.60
2018-04-24T20:19:15.392Z,20.30
2018-04-24T20:21:44.288Z,21.30
2018-04-24T20:24:13.206Z,21.80
2018-04-24T20:26:43.390Z,21.20
2018-04-24T20:29:11.545Z,21.17
2018-04-24T20:31:39.666Z,21.20
2018-04-24T20:34:08.959Z,23.03
2018-04-24T20:36:39.892Z,21.97
2018-04-24T20:39:08.817Z,24.10
2018-04-24T20:41:36.934Z,23.20
2018-04-24T20:44:05.088Z,21.97
2018-04-24T20:46:36.099Z,22.47
2018-04-24T20:49:04.254Z,20.67
2018-04-24T20:51:33.830Z,20.60
2018-04-24T20:54:01.989Z,21.63
2018-04-24T20:56:30.119Z,22.20
2018-04-24T20:58:58.261Z,22.50
2018-04-24T21:01:28.079Z,20.97
2018-04-24T21:03:57.403Z,21.33
2018-04-24T21:06:27.512Z,21.43
2018-04-24T21:08:56.516Z,21.67
2018-04-24T21:11:25.143Z,21.27
2018-04-24T21:13:53.302Z,22.00
2018-04-24T21:16:21.425Z,21.67
2018-04-24T21:18:50.335Z,21.43
2018-04-24T21:21:18.473Z,21.60
2018-04-24T21:23:46.620Z,23.90
2018-04-24T21:26:14.739Z,22.30
2018-04-24T21:28:43.650Z,24.57
2018-04-24T21:31:12.506Z,24.57
2018-04-24T21:33:40.655Z,24.80
2018-04-24T21:36:08.804Z,25.57
2018-04-24T21:38:38.915Z,24.60
2018-04-24T21:41:07.059Z,26.93
2018-04-24T21:43:35.969Z,24.77
2018-04-24T21:46:04.168Z,24.37
2018-04-24T21:48:32.316Z,26.03
2018-04-24T21:51:01.645Z,25.67
2018-04-24T21:53:29.799Z,26.40
2018-04-24T21:55:57.927Z,25.60
2018-04-24T21:58:26.086Z,26.60
2018-04-24T22:00:54.214Z,27.33
2018-04-24T22:03:22.369Z,27.33
2018-04-24T22:05:51.259Z,27.50
2018-04-24T22:08:20.200Z,26.87
2018-04-24T22:10:48.936Z,27.00
2018-04-24T22:13:17.852Z,27.83
2018-04-24T22:15:45.984Z,26.30
2018-04-24T22:18:14.136Z,27.73
2018-04-24T22:20:42.271Z,28.53
2018-04-24T22:23:10.429Z,27.33
2018-04-24T22:25:39.356Z,27.00
2018-04-24T22:28:09.669Z,27.47
2018-04-24T22:30:37.801Z,29.00
2018-04-24T22:33:05.960Z,28.23
2018-04-24T22:35:34.086Z,29.80
2018-04-24T22:38:02.233Z,29.67
2018-04-24T22:40:31.608Z,28.03
2018-04-24T22:42:59.741Z,29.13
2018-04-24T22:45:27.868Z,29.17
2018-04-24T22:47:56.471Z,28.07
2018-04-24T22:50:25.361Z,29.37
2018-04-24T22:52:54.267Z,30.23
2018-04-24T22:55:22.386Z,29.77
2018-04-24T22:57:50.547Z,32.37
2018-04-24T23:00:18.695Z,31.67
2018-04-24T23:02:46.846Z,32.30
2018-04-24T23:05:15.731Z,31.83
2018-04-24T23:07:44.652Z,32.00
2018-04-24T23:10:12.283Z,32.37
2018-04-24T23:12:52.152Z,32.53
2018-04-24T23:15:32.260Z,29.17
2018-04-24T23:18:13.436Z,32.43
2018-04-24T23:20:41.078Z,33.60
2018-04-24T23:23:09.234Z,33.07
2018-04-24T23:25:39.373Z,31.47
2018-04-24T23:28:07.490Z,30.30
2018-04-24T23:30:35.638Z,33.77
2018-04-24T23:33:03.784Z,31.10
2018-04-24T23:35:33.479Z,31.70
2018-04-24T23:38:04.438Z,31.37
2018-04-24T23:40:33.301Z,31.07
2018-04-24T23:43:02.459Z,31.90
2018-04-24T23:45:31.087Z,31.30
2018-04-24T23:47:59.213Z,33.07
2018-04-24T23:50:27.410Z,32.30
2018-04-24T23:52:56.728Z,32.97
2018-04-24T23:55:25.507Z,32.97
2018-04-24T23:57:54.403Z,32.90
